Time;durP1;ratioP1;P1;durP2;ratioP2;P2;SDS_P1;SDS_P2;PMS_P1;PMS_P2;Temp;Humidity;BMP_temperature;BMP_pressure;BME280_temperature;BME280_humidity;BME280_pressure;Samples;Min_cycle;Max_cycle;Signal;HPM_P1;HPM_P2
2022/09/17 00:00:46;;;;;;;3.78;1.80;;;18.10;64.80;;;;;;5051351;28;20049;-71
2022/09/17 00:03:13;;;;;;;3.47;1.50;;;18.00;64.80;;;;;;5050163;28;20057;-71
2022/09/17 00:05:40;;;;;;;4.03;1.90;;;17.90;68.00;;;;;;5051566;28;20099;-71
2022/09/17 00:08:09;;;;;;;3.65;1.73;;;18.00;65.30;;;;;;5050346;28;20048;-72
2022/09/17 00:10:37;;;;;;;3.08;1.67;;;18.00;68.40;;;;;;5050340;28;20136;-71
2022/09/17 00:13:04;;;;;;;4.97;1.88;;;17.20;67.80;;;;;;5049965;28;20570;-71
2022/09/17 00:15:31;;;;;;;4.53;2.42;;;18.00;64.80;;;;;;5050360;28;20049;-72
2022/09/17 00:17:57;;;;;;;5.60;1.70;;;18.00;64.80;;;;;;5050181;28;20068;-71
2022/09/17 00:20:25;;;;;;;2.53;1.50;;;18.00;64.80;;;;;;5051388;28;20045;-71
2022/09/17 00:22:51;;;;;;;3.15;1.60;;;18.00;64.80;;;;;;5050367;28;20080;-71
2022/09/17 00:25:19;;;;;;;3.53;1.90;;;18.00;64.80;;;;;;5049970;28;20071;-71
2022/09/17 00:27:46;;;;;;;4.72;1.80;;;18.00;64.80;;;;;;5049757;28;20063;-71
2022/09/17 00:30:13;;;;;;;3.55;1.92;;;17.90;68.30;;;;;;5052414;28;20082;-71
2022/09/17 00:32:40;;;;;;;3.55;1.60;;;18.00;64.80;;;;;;5054233;28;20056;-71
2022/09/17 00:35:08;;;;;;;3.08;1.52;;;18.50;68.00;;;;;;5054080;28;20061;-71
2022/09/17 00:37:34;;;;;;;2.65;1.55;;;18.00;64.80;;;;;;5055181;28;20052;-71
2022/09/17 00:40:01;;;;;;;3.00;1.70;;;17.90;68.00;;;;;;5053724;28;20053;-71
2022/09/17 00:42:29;;;;;;;4.40;1.70;;;18.00;64.80;;;;;;5053916;28;20553;-72
2022/09/17 00:44:56;;;;;;;3.17;1.30;;;18.00;64.70;;;;;;5053524;28;20060;-72
2022/09/17 00:47:29;;;;;;;4.25;1.63;;;18.60;68.00;;;;;;5053712;28;20056;-72
2022/09/17 00:49:57;;;;;;;3.97;1.63;;;18.30;68.10;;;;;;5054842;28;20080;-72
2022/09/17 00:52:26;;;;;;;2.92;1.50;;;17.90;64.70;;;;;;5054876;28;20471;-72
2022/09/17 00:54:56;;;;;;;3.78;1.60;;;17.90;64.60;;;;;;5053849;28;20045;-71
2022/09/17 00:57:23;;;;;;;3.17;1.50;;;18.00;64.70;;;;;;5054365;28;20052;-71
2022/09/17 00:59:51;;;;;;;2.72;1.42;;;18.10;68.40;;;;;;5054322;28;20504;-71
2022/09/17 01:02:17;;;;;;;2.80;1.50;;;18.00;67.90;;;;;;5054459;28;20049;-71
2022/09/17 01:04:44;;;;;;;2.85;1.63;;;18.10;68.80;;;;;;5053365;28;20055;-72
2022/09/17 01:07:14;;;;;;;3.78;1.60;;;17.90;64.60;;;;;;5054385;28;20053;-71
2022/09/17 01:09:44;;;;;;;2.40;1.33;;;17.90;64.60;;;;;;5054743;28;20052;-71
2022/09/17 01:12:23;;;;;;;3.35;1.60;;;17.90;64.60;;;;;;5054264;28;20071;-72
2022/09/17 01:15:05;;;;;;;3.63;1.58;;;18.00;67.60;;;;;;5054546;28;20049;-72
2022/09/17 01:17:35;;;;;;;3.17;1.40;;;17.90;64.60;;;;;;5053311;28;20060;-72
2022/09/17 01:20:16;;;;;;;2.83;1.35;;;17.80;67.90;;;;;;5052660;28;20056;-71
2022/09/17 01:22:47;;;;;;;3.45;1.42;;;17.90;64.60;;;;;;5054596;28;20053;-72
2022/09/17 01:25:23;;;;;;;4.53;1.67;;;17.90;64.70;;;;;;5054421;28;20411;-71
2022/09/17 01:28:14;;;;;;;4.18;1.60;;;17.90;64.60;;;;;;5053740;28;20052;-71
2022/09/17 01:31:00;;;;;;;3.40;1.40;;;17.90;65.10;;;;;;5052846;28;20067;-72
2022/09/17 01:33:30;;;;;;;3.28;1.60;;;17.90;64.60;;;;;;5054205;28;20041;-72
2022/09/17 01:36:02;;;;;;;3.13;1.45;;;17.80;66.60;;;;;;5052942;28;20053;-71
2022/09/17 01:38:29;;;;;;;2.75;1.50;;;16.80;67.10;;;;;;5052822;28;20053;-71
2022/09/17 01:41:00;;;;;;;2.90;1.50;;;17.90;64.60;;;;;;5053518;28;20049;-72
2022/09/17 01:43:27;;;;;;;3.95;1.73;;;17.80;67.90;;;;;;5053739;28;20057;-72
2022/09/17 01:45:57;;;;;;;3.63;1.70;;;18.50;67.10;;;;;;5052416;28;20071;-71
2022/09/17 01:48:26;;;;;;;4.05;1.50;;;17.80;64.60;;;;;;5053809;28;20099;-72
2022/09/17 01:50:55;;;;;;;3.33;1.50;;;16.60;67.10;;;;;;5052675;28;20406;-72
2022/09/17 01:53:26;;;;;;;2.63;1.45;;;17.80;64.60;;;;;;5053878;28;20437;-72
2022/09/17 01:55:54;;;;;;;3.30;1.50;;;17.60;66.10;;;;;;5052348;28;20064;-72
2022/09/17 01:58:22;;;;;;;2.80;1.30;;;17.80;64.60;;;;;;5052101;28;20061;-72
2022/09/17 02:00:51;;;;;;;3.65;1.65;;;17.60;68.00;;;;;;5052106;28;20106;-71
2022/09/17 02:03:20;;;;;;;3.30;1.70;;;17.90;64.60;;;;;;5053905;28;20053;-71
2022/09/17 02:05:49;;;;;;;2.53;1.50;;;17.80;64.60;;;;;;5051804;28;20513;-72
2022/09/17 02:08:18;;;;;;;2.50;1.23;;;17.80;64.60;;;;;;5053760;28;20433;-72
2022/09/17 02:10:46;;;;;;;4.07;1.50;;;17.90;64.60;;;;;;5051921;28;20049;-72
2022/09/17 02:13:14;;;;;;;2.67;1.42;;;17.80;64.60;;;;;;5051734;28;20065;-71
2022/09/17 02:15:43;;;;;;;3.35;1.40;;;17.80;64.60;;;;;;5052189;28;20056;-70
2022/09/17 02:18:18;;;;;;;3.28;1.55;;;18.00;67.90;;;;;;5052155;28;20053;-71
2022/09/17 02:20:48;;;;;;;2.78;1.42;;;18.20;67.70;;;;;;5052786;28;20053;-72
2022/09/17 02:23:16;;;;;;;2.78;1.23;;;17.80;64.60;;;;;;5052284;28;20071;-73
2022/09/17 02:25:47;;;;;;;3.08;1.27;;;18.00;68.90;;;;;;5051774;28;20049;-74
2022/09/17 02:28:16;;;;;;;2.92;1.40;;;17.80;64.60;;;;;;5051728;28;20067;-74
2022/09/17 02:30:42;;;;;;;3.80;1.33;;;17.80;64.60;;;;;;5051803;28;20088;-73
2022/09/17 02:33:10;;;;;;;4.60;1.48;;;17.80;64.50;;;;;;5051887;28;20132;-73
2022/09/17 02:35:37;;;;;;;4.38;1.40;;;17.90;68.70;;;;;;5051751;28;20055;-74
2022/09/17 02:38:05;;;;;;;4.32;1.27;;;17.90;68.10;;;;;;5051847;28;20059;-74
2022/09/17 02:40:35;;;;;;;3.13;1.30;;;17.20;67.30;;;;;;5052642;28;20409;-74
2022/09/17 02:43:08;;;;;;;2.92;1.48;;;17.80;64.50;;;;;;5051294;28;20057;-73
2022/09/17 02:45:41;;;;;;;2.97;1.40;;;17.90;64.50;;;;;;5052608;28;20485;-73
2022/09/17 02:48:28;;;;;;;2.70;1.40;;;18.30;67.60;;;;;;5052628;28;20459;-74
2022/09/17 02:51:05;;;;;;;3.20;1.58;;;17.70;67.90;;;;;;5051464;28;20067;-74
2022/09/17 02:53:37;;;;;;;3.35;1.50;;;17.80;64.40;;;;;;5052022;28;20128;-73
2022/09/17 02:56:10;;;;;;;2.72;1.35;;;18.10;66.70;;;;;;5051920;28;20056;-74
2022/09/17 02:58:40;;;;;;;3.53;1.30;;;17.90;67.50;;;;;;5051466;28;20057;-74
2022/09/17 03:01:11;;;;;;;3.03;1.25;;;17.80;67.10;;;;;;5051020;28;20059;-74
2022/09/17 03:03:39;;;;;;;3.40;1.23;;;17.80;64.40;;;;;;5051176;28;20063;-73
2022/09/17 03:06:06;;;;;;;2.90;1.38;;;17.90;66.60;;;;;;5050867;28;20049;-73
2022/09/17 03:08:36;;;;;;;6.00;1.65;;;17.70;67.30;;;;;;5052273;28;20441;-74
2022/09/17 03:11:04;;;;;;;2.70;1.25;;;17.90;64.40;;;;;;5051888;28;20369;-74
2022/09/17 03:13:31;;;;;;;2.90;1.30;;;17.90;64.50;;;;;;5052495;28;20408;-73
2022/09/17 03:15:58;;;;;;;2.28;1.20;;;18.00;66.70;;;;;;5051106;28;20049;-74
2022/09/17 03:18:24;;;;;;;4.03;1.45;;;18.90;68.00;;;;;;5050938;28;20139;-73
2022/09/17 03:20:51;;;;;;;4.47;1.50;;;17.90;64.40;;;;;;5052101;28;20405;-73
2022/09/17 03:23:18;;;;;;;4.35;1.52;;;17.90;68.40;;;;;;5050791;28;20052;-74
2022/09/17 03:25:48;;;;;;;1.77;1.20;;;17.80;64.30;;;;;;5051548;28;20041;-74
2022/09/17 03:28:15;;;;;;;3.13;1.60;;;17.90;64.30;;;;;;5050641;28;20052;-74
2022/09/17 03:30:42;;;;;;;2.40;1.20;;;17.90;64.30;;;;;;5051843;28;20049;-74
2022/09/17 03:33:09;;;;;;;2.60;1.20;;;17.90;64.30;;;;;;5052152;28;20048;-73
2022/09/17 03:35:36;;;;;;;2.72;1.30;;;17.90;64.30;;;;;;5050739;28;20053;-74
2022/09/17 03:38:02;;;;;;;3.47;1.20;;;17.90;64.30;;;;;;5051662;28;20514;-72
2022/09/17 03:40:29;;;;;;;3.03;1.40;;;18.20;67.80;;;;;;5051087;28;20045;-74
2022/09/17 03:42:57;;;;;;;3.05;1.45;;;17.90;64.20;;;;;;5050906;28;20055;-74
2022/09/17 03:45:24;;;;;;;6.07;1.52;;;17.90;64.20;;;;;;5052023;28;20045;-74
2022/09/17 03:47:50;;;;;;;2.63;1.38;;;17.90;64.20;;;;;;5051602;28;20127;-74
2022/09/17 03:50:17;;;;;;;2.85;1.42;;;17.90;64.20;;;;;;5050254;28;20063;-73
2022/09/17 03:52:44;;;;;;;3.45;1.40;;;17.90;64.20;;;;;;5050651;28;20056;-74
2022/09/17 03:55:11;;;;;;;2.92;1.30;;;17.80;64.10;;;;;;5050292;28;20060;-74
2022/09/17 03:57:37;;;;;;;3.30;1.45;;;18.10;67.20;;;;;;5051732;28;20422;-73
2022/09/17 04:00:07;;;;;;;2.35;1.42;;;17.40;66.60;;;;;;5049963;28;20055;-74
2022/09/17 04:02:33;;;;;;;4.60;1.40;;;17.90;67.30;;;;;;5050290;28;20064;-74
2022/09/17 04:05:00;;;;;;;4.38;1.30;;;17.80;64.10;;;;;;5055215;28;20048;-74
2022/09/17 04:07:27;;;;;;;2.72;1.20;;;17.50;67.70;;;;;;5055922;28;20059;-74
2022/09/17 04:09:53;;;;;;;2.40;1.30;;;17.70;67.30;;;;;;5054235;28;20049;-73
2022/09/17 04:12:20;;;;;;;2.60;1.27;;;17.80;64.10;;;;;;5054251;28;20079;-73
2022/09/17 04:14:47;;;;;;;3.03;1.33;;;18.50;67.50;;;;;;5055617;28;20060;-74
2022/09/17 04:17:17;;;;;;;2.83;1.67;;;17.80;64.00;;;;;;5055283;28;20502;-73
2022/09/17 04:19:44;;;;;;;3.42;1.30;;;17.90;64.10;;;;;;5054102;28;20049;-73
2022/09/17 04:22:10;;;;;;;4.10;1.40;;;17.90;64.10;;;;;;5054565;28;20052;-74
2022/09/17 04:24:37;;;;;;;3.45;1.20;;;17.90;66.20;;;;;;5054459;28;20044;-74
2022/09/17 04:27:04;;;;;;;3.15;1.13;;;17.80;64.00;;;;;;5053427;28;20076;-74
2022/09/17 04:29:31;;;;;;;3.72;1.48;;;17.80;64.00;;;;;;5054429;28;20132;-74
2022/09/17 04:31:58;;;;;;;3.05;1.40;;;17.80;64.00;;;;;;5054872;28;20053;-72
2022/09/17 04:34:26;;;;;;;2.92;1.20;;;17.60;66.80;;;;;;5054000;28;20056;-73
2022/09/17 04:36:52;;;;;;;2.00;1.20;;;17.80;64.00;;;;;;5053989;28;20056;-73
2022/09/17 04:39:19;;;;;;;3.08;1.20;;;17.80;64.00;;;;;;5055049;28;20053;-73
2022/09/17 04:41:46;;;;;;;2.70;1.20;;;17.80;67.60;;;;;;5053355;28;20053;-71
2022/09/17 04:44:13;;;;;;;2.47;1.17;;;17.80;64.00;;;;;;5054983;28;20060;-71
2022/09/17 04:46:40;;;;;;;2.40;1.20;;;18.40;67.20;;;;;;5053472;28;20059;-72
2022/09/17 04:49:07;;;;;;;3.35;1.15;;;17.80;64.00;;;;;;5053917;28;20513;-72
2022/09/17 04:51:35;;;;;;;3.50;1.30;;;18.00;67.00;;;;;;5054682;28;20049;-71
2022/09/17 04:54:02;;;;;;;2.38;1.05;;;17.80;63.90;;;;;;5053902;28;20118;-71
2022/09/17 04:56:29;;;;;;;2.85;1.30;;;17.80;63.90;;;;;;5053273;28;20048;-72
2022/09/17 04:58:55;;;;;;;2.40;1.13;;;17.80;63.90;;;;;;5053766;28;20052;-72
2022/09/17 05:01:22;;;;;;;2.50;1.17;;;17.80;63.90;;;;;;5053269;28;20059;-72
2022/09/17 05:03:49;;;;;;;3.63;1.35;;;17.80;63.90;;;;;;5053608;28;20083;-72
2022/09/17 05:06:16;;;;;;;3.53;1.30;;;17.80;63.90;;;;;;5054722;28;20049;-71
2022/09/17 05:08:44;;;;;;;3.08;1.17;;;17.80;63.90;;;;;;5053728;28;20620;-71
2022/09/17 05:11:11;;;;;;;4.45;1.20;;;17.80;63.90;;;;;;5054037;28;20111;-71
2022/09/17 05:13:38;;;;;;;2.60;1.10;;;17.80;63.90;;;;;;5053290;28;20432;-71
2022/09/17 05:16:05;;;;;;;3.78;1.30;;;17.80;65.60;;;;;;5052993;28;20049;-72
2022/09/17 05:18:31;;;;;;;3.35;1.10;;;17.80;63.90;;;;;;5054565;28;20403;-72
2022/09/17 05:20:58;;;;;;;2.00;1.27;;;17.80;63.90;;;;;;5054058;28;20055;-71
2022/09/17 05:23:25;;;;;;;1.70;0.90;;;17.90;67.00;;;;;;5054450;28;20055;-72
2022/09/17 05:25:53;;;;;;;2.25;1.10;;;20.20;65.10;;;;;;5052289;28;20531;-71
2022/09/17 05:28:20;;;;;;;4.50;1.40;;;17.80;63.80;;;;;;5052376;28;20056;-72
2022/09/17 05:30:47;;;;;;;3.08;1.17;;;17.80;63.80;;;;;;5054232;28;20099;-72
2022/09/17 05:33:13;;;;;;;2.78;1.17;;;17.60;66.50;;;;;;5053155;28;20057;-72
2022/09/17 05:35:42;;;;;;;2.67;1.30;;;17.80;63.60;;;;;;5054065;28;20056;-72
2022/09/17 05:38:09;;;;;;;3.53;1.27;;;17.80;63.70;;;;;;5053564;28;20060;-72
2022/09/17 05:40:36;;;;;;;4.40;1.23;;;17.60;66.60;;;;;;5053294;28;20051;-71
2022/09/17 05:43:05;;;;;;;4.85;1.17;;;18.00;66.60;;;;;;5052503;28;20053;-71
2022/09/17 05:45:32;;;;;;;7.47;1.80;;;17.80;63.70;;;;;;5052642;28;20056;-71
2022/09/17 05:48:00;;;;;;;3.47;1.33;;;17.80;63.50;;;;;;5052971;28;20482;-72
2022/09/17 05:50:27;;;;;;;4.30;1.90;;;17.80;63.50;;;;;;5053905;28;20049;-71
2022/09/17 05:52:54;;;;;;;4.95;1.30;;;18.40;66.50;;;;;;5053670;28;20052;-71
2022/09/17 05:55:21;;;;;;;2.92;1.42;;;17.80;63.60;;;;;;5052821;28;20060;-72
2022/09/17 05:57:47;;;;;;;2.97;1.23;;;17.80;63.60;;;;;;5053611;28;20057;-72
2022/09/17 06:00:16;;;;;;;4.15;1.35;;;17.80;63.60;;;;;;5052278;28;20059;-71
2022/09/17 06:02:43;;;;;;;4.13;1.30;;;17.80;63.60;;;;;;5052591;28;20053;-72
2022/09/17 06:05:10;;;;;;;3.13;1.30;;;17.80;63.60;;;;;;5052733;28;20057;-71
2022/09/17 06:07:37;;;;;;;5.35;2.00;;;17.80;63.60;;;;;;5052720;28;20048;-71
2022/09/17 06:10:04;;;;;;;5.70;1.80;;;17.80;63.60;;;;;;5052067;28;20057;-71
2022/09/17 06:12:30;;;;;;;4.25;1.50;;;17.80;63.60;;;;;;5052265;28;20063;-71
2022/09/17 06:14:57;;;;;;;3.70;1.50;;;17.80;63.60;;;;;;5052623;28;20496;-71
2022/09/17 06:17:25;;;;;;;4.55;1.70;;;17.80;63.60;;;;;;5052176;28;20079;-72
2022/09/17 06:19:52;;;;;;;4.25;1.45;;;17.80;63.60;;;;;;5052292;28;20049;-72
2022/09/17 06:22:19;;;;;;;6.88;1.73;;;18.10;66.90;;;;;;5052217;28;20064;-72
2022/09/17 06:24:46;;;;;;;3.22;1.20;;;17.80;63.60;;;;;;5051720;28;20061;-71
2022/09/17 06:27:13;;;;;;;6.38;1.58;;;17.70;66.80;;;;;;5051765;28;20053;-72
2022/09/17 06:29:40;;;;;;;5.53;1.48;;;17.80;63.60;;;;;;5051933;28;20057;-72
2022/09/17 06:32:09;;;;;;;5.85;1.52;;;17.80;63.60;;;;;;5052094;28;20102;-72
2022/09/17 06:34:37;;;;;;;4.75;1.33;;;17.80;63.60;;;;;;5053192;28;20128;-72
2022/09/17 06:37:04;;;;;;;7.80;1.75;;;17.80;63.50;;;;;;5051943;28;20053;-72
2022/09/17 06:39:31;;;;;;;2.78;1.50;;;17.80;66.60;;;;;;5053073;28;20072;-75
2022/09/17 06:41:58;;;;;;;4.32;1.77;;;17.80;63.50;;;;;;5051927;28;20063;-73
2022/09/17 06:44:24;;;;;;;3.50;1.27;;;17.80;63.50;;;;;;5051994;28;20067;-74
2022/09/17 06:46:51;;;;;;;6.65;1.80;;;18.20;66.40;;;;;;5052784;28;20044;-73
2022/09/17 06:49:18;;;;;;;3.90;1.67;;;17.80;63.50;;;;;;5051352;28;20064;-74
2022/09/17 06:51:46;;;;;;;7.30;1.70;;;17.80;63.50;;;;;;5051068;28;20063;-74
2022/09/17 06:54:13;;;;;;;5.18;1.52;;;17.90;63.60;;;;;;5051724;28;20143;-74
2022/09/17 06:56:40;;;;;;;3.97;1.75;;;17.80;66.90;;;;;;5052156;28;20056;-74
2022/09/17 06:59:07;;;;;;;6.60;2.17;;;17.80;63.50;;;;;;5051812;28;20052;-71
2022/09/17 07:01:33;;;;;;;5.03;1.60;;;17.80;63.50;;;;;;5050896;28;20057;-74
2022/09/17 07:04:00;;;;;;;8.13;1.92;;;16.70;65.70;;;;;;5051467;28;20056;-73
2022/09/17 07:06:27;;;;;;;3.38;1.50;;;17.90;63.60;;;;;;5050978;28;20098;-73
2022/09/17 07:08:55;;;;;;;5.65;1.70;;;17.80;63.50;;;;;;5051748;28;20063;-73
2022/09/17 07:11:21;;;;;;;5.15;1.63;;;19.00;67.90;;;;;;5051138;28;20132;-73
2022/09/17 07:13:48;;;;;;;5.25;1.58;;;18.30;67.60;;;;;;5051421;28;20056;-73
2022/09/17 07:16:15;;;;;;;5.32;1.67;;;17.80;63.50;;;;;;5051531;28;20060;-73
2022/09/17 07:18:42;;;;;;;6.47;1.73;;;17.80;63.40;;;;;;5052186;28;20428;-74
2022/09/17 07:21:09;;;;;;;5.63;1.80;;;17.80;63.40;;;;;;5052155;28;20421;-74
2022/09/17 07:23:37;;;;;;;4.47;1.67;;;17.90;63.40;;;;;;5052401;28;20512;-73
2022/09/17 07:26:06;;;;;;;4.90;1.90;;;18.00;65.40;;;;;;5051104;28;20048;-72
2022/09/17 07:28:33;;;;;;;4.40;1.42;;;17.80;66.10;;;;;;5051152;28;20405;-72
2022/09/17 07:31:02;;;;;;;7.05;1.55;;;17.90;63.40;;;;;;5050689;28;20129;-72
2022/09/17 07:33:29;;;;;;;5.47;2.00;;;17.80;63.30;;;;;;5051243;28;20140;-72
2022/09/17 07:35:56;;;;;;;4.93;1.60;;;17.80;64.90;;;;;;5050745;28;20052;-72
2022/09/17 07:38:23;;;;;;;4.10;1.70;;;17.80;63.30;;;;;;5050737;28;20060;-72
2022/09/17 07:40:56;;;;;;;6.18;1.83;;;17.80;63.40;;;;;;5050722;28;20067;-72
2022/09/17 07:43:25;;;;;;;6.47;1.70;;;17.90;63.40;;;;;;5050944;28;20061;-72
2022/09/17 07:45:52;;;;;;;4.05;1.58;;;17.90;63.40;;;;;;5050679;28;20048;-72
2022/09/17 07:48:19;;;;;;;3.53;1.30;;;17.90;63.40;;;;;;5050864;28;20053;-71
2022/09/17 07:50:45;;;;;;;5.72;1.77;;;17.90;63.40;;;;;;5050388;28;20056;-72
2022/09/17 07:53:12;;;;;;;3.55;1.45;;;17.90;63.30;;;;;;5052060;28;20049;-71
2022/09/17 07:55:39;;;;;;;3.42;1.70;;;17.90;63.30;;;;;;5050659;28;20049;-72
2022/09/17 07:58:05;;;;;;;3.75;1.67;;;17.90;66.60;;;;;;5051757;28;20407;-71
2022/09/17 08:00:33;;;;;;;5.30;2.15;;;17.90;63.40;;;;;;5050101;28;20059;-72
2022/09/17 08:03:00;;;;;;;3.83;1.50;;;17.90;63.30;;;;;;5050776;28;20068;-72
2022/09/17 08:05:27;;;;;;;3.25;1.40;;;17.90;63.30;;;;;;5049979;28;20049;-72
2022/09/17 08:07:54;;;;;;;3.97;1.38;;;18.00;66.40;;;;;;5051646;28;20175;-71
2022/09/17 08:10:21;;;;;;;3.90;1.50;;;17.90;63.30;;;;;;5050511;28;20063;-72
2022/09/17 08:12:48;;;;;;;4.35;1.40;;;17.90;63.30;;;;;;5050693;28;20063;-71
2022/09/17 08:15:15;;;;;;;4.40;1.50;;;17.90;63.30;;;;;;5050702;28;20513;-72
2022/09/17 08:17:44;;;;;;;2.80;1.40;;;17.90;63.30;;;;;;5051329;28;20147;-72
2022/09/17 08:20:11;;;;;;;2.97;1.42;;;17.90;63.20;;;;;;5049643;28;20056;-71
2022/09/17 08:22:37;;;;;;;4.18;1.38;;;17.90;63.20;;;;;;5049980;28;20053;-72
2022/09/17 08:25:05;;;;;;;3.20;1.50;;;18.00;63.30;;;;;;5051130;28;20048;-71
2022/09/17 08:27:31;;;;;;;3.92;1.60;;;18.00;63.30;;;;;;5050106;28;20049;-71
2022/09/17 08:29:58;;;;;;;3.35;1.40;;;17.80;66.30;;;;;;5049724;28;20052;-72
2022/09/17 08:32:25;;;;;;;3.05;1.20;;;18.00;63.20;;;;;;5050505;28;20049;-73
2022/09/17 08:34:53;;;;;;;2.63;1.20;;;18.00;63.20;;;;;;5050327;28;20059;-71
2022/09/17 08:37:20;;;;;;;3.65;1.40;;;18.20;66.00;;;;;;5050167;28;20444;-72
2022/09/17 08:39:47;;;;;;;4.25;1.30;;;18.00;66.30;;;;;;5051324;28;20502;-72
2022/09/17 08:42:17;;;;;;;2.88;1.30;;;18.00;63.20;;;;;;5051004;28;20448;-72
2022/09/17 08:44:44;;;;;;;3.50;1.30;;;18.00;63.20;;;;;;5050080;28;20076;-72
2022/09/17 08:47:14;;;;;;;3.75;1.33;;;18.00;63.20;;;;;;5051192;28;20067;-73
2022/09/17 08:49:43;;;;;;;4.80;1.48;;;18.00;63.20;;;;;;5049989;28;20144;-71
2022/09/17 08:52:46;;;;;;;2.65;1.30;;;18.00;63.20;;;;;;5053458;28;20052;-72
2022/09/17 08:55:20;;;;;;;3.63;1.27;;;17.20;66.20;;;;;;5053949;28;20064;-71
2022/09/17 08:57:50;;;;;;;2.88;1.40;;;18.00;63.20;;;;;;5053853;28;20081;-72
2022/09/17 09:00:18;;;;;;;2.75;1.20;;;18.00;63.20;;;;;;5053736;28;20056;-71
2022/09/17 09:02:56;;;;;;;3.55;1.30;;;18.00;63.20;;;;;;5053447;28;20063;-71
2022/09/17 09:05:25;;;;;;;2.92;1.35;;;18.00;63.20;;;;;;5054881;28;20391;-71
2022/09/17 09:07:54;;;;;;;4.53;1.27;;;18.00;66.10;;;;;;5054321;28;20055;-72
2022/09/17 09:10:23;;;;;;;2.95;1.50;;;18.30;66.50;;;;;;5053707;28;20053;-71
2022/09/17 09:12:50;;;;;;;3.42;1.42;;;18.00;63.20;;;;;;5053416;28;20060;-72
2022/09/17 09:15:37;;;;;;;2.75;1.20;;;18.00;63.20;;;;;;5053464;28;20053;-71
2022/09/17 09:18:18;;;;;;;2.47;1.13;;;18.20;66.20;;;;;;5053578;28;20512;-72
2022/09/17 09:20:50;;;;;;;4.20;1.50;;;18.00;66.40;;;;;;5053377;28;20110;-71
2022/09/17 09:23:20;;;;;;;1.90;1.27;;;18.00;63.20;;;;;;5053328;28;20053;-72
2022/09/17 09:25:54;;;;;;;2.97;1.40;;;18.00;63.20;;;;;;5053199;28;20070;-72
2022/09/17 09:28:31;;;;;;;3.17;1.35;;;18.00;63.10;;;;;;5053450;28;20057;-73
2022/09/17 09:31:01;;;;;;;2.78;1.13;;;18.10;63.20;;;;;;5052964;28;20470;-72
2022/09/17 09:33:30;;;;;;;3.03;1.00;;;18.00;66.40;;;;;;5053199;28;20059;-71
2022/09/17 09:35:57;;;;;;;3.33;1.20;;;17.70;64.50;;;;;;5036304;28;20071;-72
2022/09/17 09:38:31;;;;;;;2.15;1.20;;;18.10;63.20;;;;;;5054110;28;20393;-72
2022/09/17 09:41:00;;;;;;;4.13;1.20;;;18.00;63.10;;;;;;5052948;28;20137;-72
2022/09/17 09:43:31;;;;;;;2.65;1.08;;;18.00;63.20;;;;;;5053081;28;20549;-72
2022/09/17 09:46:20;;;;;;;3.30;1.25;;;18.00;64.70;;;;;;5052971;28;20061;-72
2022/09/17 09:48:52;;;;;;;2.72;1.35;;;18.00;63.10;;;;;;5053750;28;20041;-72
2022/09/17 09:51:29;;;;;;;3.13;1.17;;;18.00;63.20;;;;;;5036074;28;20103;-73
2022/09/17 09:54:06;;;;;;;2.53;1.20;;;18.00;63.70;;;;;;5052896;28;20063;-73
2022/09/17 09:56:45;;;;;;;2.05;1.10;;;18.00;63.20;;;;;;5053874;28;20410;-73
2022/09/17 09:59:12;;;;;;;2.17;1.17;;;18.10;63.20;;;;;;5052620;28;20057;-73
2022/09/17 10:01:41;;;;;;;3.33;1.30;;;18.20;66.20;;;;;;5052454;28;20056;-72
2022/09/17 10:04:15;;;;;;;2.60;1.02;;;18.00;63.10;;;;;;5052452;28;20068;-73
2022/09/17 10:06:42;;;;;;;2.92;1.10;;;18.00;63.10;;;;;;5052265;28;20080;-72
2022/09/17 10:09:11;;;;;;;2.65;1.52;;;18.00;63.10;;;;;;5052607;28;20387;-72
2022/09/17 10:11:38;;;;;;;3.25;1.10;;;17.00;64.80;;;;;;5052245;28;20061;-71
2022/09/17 10:14:14;;;;;;;2.22;1.10;;;18.10;63.10;;;;;;5053508;28;20131;-72
2022/09/17 10:16:41;;;;;;;4.30;1.10;;;18.20;66.10;;;;;;5052242;28;20053;-71
2022/09/17 10:19:13;;;;;;;3.05;1.40;;;18.10;63.10;;;;;;5052458;28;20055;-72
2022/09/17 10:21:40;;;;;;;2.97;1.05;;;18.10;66.30;;;;;;5051703;28;20057;-71
2022/09/17 10:24:15;;;;;;;2.03;1.00;;;18.10;63.10;;;;;;5052298;28;20053;-71
2022/09/17 10:26:43;;;;;;;2.22;1.02;;;18.10;63.00;;;;;;5051934;28;20059;-72
2022/09/17 10:29:12;;;;;;;2.05;1.20;;;18.20;63.00;;;;;;5051868;28;20051;-71
2022/09/17 10:31:46;;;;;;;3.20;1.30;;;18.20;63.00;;;;;;5051764;28;20083;-72
2022/09/17 10:34:19;;;;;;;2.80;1.25;;;18.20;63.00;;;;;;5052177;28;20067;-71
2022/09/17 10:36:46;;;;;;;2.58;1.00;;;18.20;66.10;;;;;;5051879;28;20064;-72
2022/09/17 10:39:29;;;;;;;2.22;1.10;;;18.20;62.90;;;;;;5051940;28;20063;-72
2022/09/17 10:41:56;;;;;;;1.88;1.05;;;18.30;62.90;;;;;;5051869;28;20057;-72
2022/09/17 10:44:23;;;;;;;1.38;0.90;;;18.30;62.90;;;;;;5051926;28;20057;-72
2022/09/17 10:46:50;;;;;;;1.23;0.90;;;18.20;65.70;;;;;;5051725;28;20052;-74
2022/09/17 10:49:22;;;;;;;3.15;0.95;;;18.30;62.90;;;;;;5051827;28;20067;-73
2022/09/17 10:51:48;;;;;;;1.77;0.90;;;18.30;66.50;;;;;;5051346;28;20052;-74
2022/09/17 10:54:24;;;;;;;2.55;1.10;;;19.00;65.90;;;;;;5051864;28;20112;-73
2022/09/17 10:56:52;;;;;;;1.77;0.90;;;18.60;66.40;;;;;;5051481;28;20053;-73
2022/09/17 10:59:35;;;;;;;2.10;0.90;;;18.40;62.90;;;;;;5051730;28;20049;-72
2022/09/17 11:02:07;;;;;;;1.63;1.05;;;18.40;62.70;;;;;;5051295;28;20413;-73
2022/09/17 11:04:40;;;;;;;3.95;1.10;;;18.40;62.70;;;;;;5052894;28;20049;-74
2022/09/17 11:07:18;;;;;;;2.20;1.00;;;18.40;62.70;;;;;;5051428;28;20131;-73
2022/09/17 11:09:52;;;;;;;2.10;1.10;;;18.50;62.70;;;;;;5051201;28;20063;-74
2022/09/17 11:12:31;;;;;;;2.00;1.00;;;18.40;62.30;;;;;;5050875;28;20057;-74
2022/09/17 11:15:01;;;;;;;2.20;0.90;;;18.50;62.70;;;;;;5050775;28;20532;-72
2022/09/17 11:17:40;;;;;;;3.80;1.13;;;18.50;62.70;;;;;;5051437;28;20049;-73
2022/09/17 11:20:12;;;;;;;1.65;1.13;;;18.50;62.70;;;;;;5051124;28;20053;-74
2022/09/17 11:22:44;;;;;;;1.80;1.02;;;18.50;62.70;;;;;;5051114;28;20065;-74
2022/09/17 11:25:36;;;;;;;1.85;1.08;;;17.90;65.10;;;;;;5051416;28;20052;-74
2022/09/17 11:28:09;;;;;;;1.48;0.80;;;18.50;62.60;;;;;;5050859;28;20061;-74
2022/09/17 11:30:42;;;;;;;1.70;0.90;;;18.70;66.20;;;;;;5050587;28;20136;-72
2022/09/17 11:33:34;;;;;;;1.67;1.10;;;18.60;62.70;;;;;;5052148;28;20053;-72
2022/09/17 11:36:03;;;;;;;2.80;1.10;;;18.70;63.90;;;;;;5050720;28;20056;-72
2022/09/17 11:38:30;;;;;;;1.90;1.00;;;19.60;66.10;;;;;;5050848;28;20053;-72
2022/09/17 11:41:01;;;;;;;2.95;1.08;;;18.60;62.60;;;;;;5050447;28;20417;-72
2022/09/17 11:43:28;;;;;;;2.42;1.13;;;18.60;62.60;;;;;;5050801;28;20052;-73
2022/09/17 11:46:00;;;;;;;2.95;1.15;;;18.60;62.50;;;;;;5050330;28;20052;-73
2022/09/17 11:48:31;;;;;;;2.88;0.93;;;18.70;62.50;;;;;;5050432;28;20049;-73
2022/09/17 11:51:00;;;;;;;2.25;0.95;;;18.70;62.50;;;;;;5050775;28;20061;-73
2022/09/17 11:53:30;;;;;;;3.78;1.08;;;18.70;62.40;;;;;;5050667;28;20131;-73
2022/09/17 11:55:58;;;;;;;1.67;0.93;;;18.00;63.50;;;;;;5050853;28;20053;-72
2022/09/17 11:58:36;;;;;;;1.63;1.00;;;18.70;62.40;;;;;;5050765;28;20053;-72
2022/09/17 12:01:05;;;;;;;2.80;0.93;;;18.80;62.40;;;;;;5050942;28;20534;-73
2022/09/17 12:03:34;;;;;;;2.35;1.00;;;18.80;62.30;;;;;;5051974;28;20132;-72
2022/09/17 12:06:03;;;;;;;2.58;0.98;;;18.80;63.40;;;;;;5051803;28;20052;-73
2022/09/17 12:08:33;;;;;;;2.85;1.02;;;18.80;62.30;;;;;;5051843;28;20402;-73
2022/09/17 12:11:04;;;;;;;1.63;0.90;;;18.70;65.50;;;;;;5050529;28;20136;-72
2022/09/17 12:13:34;;;;;;;1.88;1.00;;;18.80;62.20;;;;;;5051623;28;20558;-72
2022/09/17 12:16:10;;;;;;;2.80;0.90;;;17.90;62.70;;;;;;5051248;28;20041;-72
2022/09/17 12:18:46;;;;;;;1.83;1.00;;;18.80;62.20;;;;;;5051552;28;20405;-72
2022/09/17 12:21:14;;;;;;;2.72;1.00;;;18.80;62.20;;;;;;5050478;28;20064;-72
2022/09/17 12:23:43;;;;;;;2.08;1.10;;;19.70;65.40;;;;;;5051615;28;20051;-72
2022/09/17 12:26:17;;;;;;;2.42;1.10;;;18.70;63.80;;;;;;5053737;28;20075;-74
2022/09/17 12:28:49;;;;;;;2.60;1.10;;;18.80;62.10;;;;;;5055145;28;20041;-74
2022/09/17 12:31:19;;;;;;;2.67;1.02;;;18.80;62.20;;;;;;5054346;28;20670;-73
2022/09/17 12:33:46;;;;;;;3.10;1.10;;;17.90;65.00;;;;;;5054498;28;20053;-73
2022/09/17 12:36:28;;;;;;;2.35;1.17;;;18.90;63.40;;;;;;5054283;28;20062;-73
2022/09/17 12:39:34;;;;;;;2.60;1.20;;;18.80;62.10;;;;;;5055301;28;20413;-73
2022/09/17 12:42:05;;;;;;;2.85;1.05;;;18.80;62.10;;;;;;5054148;28;20056;-74
2022/09/17 12:44:41;;;;;;;4.03;1.15;;;18.80;62.10;;;;;;5055248;28;20128;-74
2022/09/17 12:47:21;;;;;;;2.83;1.10;;;18.80;62.10;;;;;;5052997;28;20120;-74
2022/09/17 12:50:00;;;;;;;2.55;1.00;;;18.80;62.10;;;;;;5052613;28;20044;-75
2022/09/17 12:52:34;;;;;;;2.80;1.10;;;18.80;62.00;;;;;;5053362;28;20052;-74
2022/09/17 12:55:29;;;;;;;2.50;0.90;;;18.80;62.00;;;;;;5053662;28;20053;-74
2022/09/17 12:58:00;;;;;;;1.65;1.02;;;17.60;64.70;;;;;;5030855;28;20124;-73
2022/09/17 13:00:29;;;;;;;4.00;1.00;;;18.70;62.00;;;;;;5050435;28;20574;-73